sensor_id;sensor_type;location;lat;lon;timestamp;P1;durP1;ratioP1;P2;durP2;ratioP2
26656;SDS011;14279;50.010;8.260;2023-11-21T00:00:50;6.03;;;2.50;;
26656;SDS011;14279;50.010;8.260;2023-11-21T00:03:15;9.93;;;2.80;;
26656;SDS011;14279;50.010;8.260;2023-11-21T00:05:41;4.77;;;2.87;;
26656;SDS011;14279;50.010;8.260;2023-11-21T00:08:06;4.63;;;2.60;;
26656;SDS011;14279;50.010;8.260;2023-11-21T00:10:32;7.50;;;2.63;;
26656;SDS011;14279;50.010;8.260;2023-11-21T00:12:58;7.70;;;3.20;;
26656;SDS011;14279;50.010;8.260;2023-11-21T00:15:23;5.47;;;2.80;;
26656;SDS011;14279;50.010;8.260;2023-11-21T00:17:48;7.53;;;2.80;;
26656;SDS011;14279;50.010;8.260;2023-11-21T00:20:14;5.70;;;2.63;;
26656;SDS011;14279;50.010;8.260;2023-11-21T00:22:40;3.57;;;2.70;;
26656;SDS011;14279;50.010;8.260;2023-11-21T00:25:06;9.90;;;3.13;;
26656;SDS011;14279;50.010;8.260;2023-11-21T00:27:34;6.40;;;2.73;;
26656;SDS011;14279;50.010;8.260;2023-11-21T00:30:03;4.93;;;2.60;;
26656;SDS011;14279;50.010;8.260;2023-11-21T00:32:32;7.27;;;2.97;;
26656;SDS011;14279;50.010;8.260;2023-11-21T00:35:01;2.60;;;2.40;;
26656;SDS011;14279;50.010;8.260;2023-11-21T00:37:35;4.27;;;2.97;;
26656;SDS011;14279;50.010;8.260;2023-11-21T00:40:21;6.93;;;3.10;;
26656;SDS011;14279;50.010;8.260;2023-11-21T00:42:47;5.83;;;3.57;;
26656;SDS011;14279;50.010;8.260;2023-11-21T00:45:12;6.33;;;2.73;;
26656;SDS011;14279;50.010;8.260;2023-11-21T00:47:37;7.00;;;3.40;;
26656;SDS011;14279;50.010;8.260;2023-11-21T00:50:04;4.73;;;3.20;;
26656;SDS011;14279;50.010;8.260;2023-11-21T00:52:32;11.20;;;3.23;;
26656;SDS011;14279;50.010;8.260;2023-11-21T00:55:01;7.20;;;2.87;;
26656;SDS011;14279;50.010;8.260;2023-11-21T00:57:28;5.40;;;3.00;;
26656;SDS011;14279;50.010;8.260;2023-11-21T00:59:53;5.97;;;2.83;;
26656;SDS011;14279;50.010;8.260;2023-11-21T01:02:20;5.27;;;2.63;;
26656;SDS011;14279;50.010;8.260;2023-11-21T01:04:46;7.23;;;2.93;;
26656;SDS011;14279;50.010;8.260;2023-11-21T01:07:12;7.23;;;2.83;;
26656;SDS011;14279;50.010;8.260;2023-11-21T01:09:38;10.43;;;3.10;;
26656;SDS011;14279;50.010;8.260;2023-11-21T01:12:03;5.17;;;2.30;;
26656;SDS011;14279;50.010;8.260;2023-11-21T01:14:29;3.80;;;2.27;;
26656;SDS011;14279;50.010;8.260;2023-11-21T01:16:54;8.63;;;2.80;;
26656;SDS011;14279;50.010;8.260;2023-11-21T01:19:20;4.90;;;2.63;;
26656;SDS011;14279;50.010;8.260;2023-11-21T01:21:46;5.57;;;3.10;;
26656;SDS011;14279;50.010;8.260;2023-11-21T01:24:12;6.87;;;2.83;;
26656;SDS011;14279;50.010;8.260;2023-11-21T01:26:37;6.17;;;3.43;;
26656;SDS011;14279;50.010;8.260;2023-11-21T01:29:02;6.53;;;3.80;;
26656;SDS011;14279;50.010;8.260;2023-11-21T01:31:28;6.37;;;4.57;;
26656;SDS011;14279;50.010;8.260;2023-11-21T01:33:55;7.03;;;4.73;;
26656;SDS011;14279;50.010;8.260;2023-11-21T01:36:20;7.03;;;4.90;;
26656;SDS011;14279;50.010;8.260;2023-11-21T01:38:46;14.00;;;5.23;;
26656;SDS011;14279;50.010;8.260;2023-11-21T01:41:14;7.53;;;5.03;;
26656;SDS011;14279;50.010;8.260;2023-11-21T01:43:40;8.73;;;4.60;;
26656;SDS011;14279;50.010;8.260;2023-11-21T01:46:06;13.07;;;5.03;;
26656;SDS011;14279;50.010;8.260;2023-11-21T01:48:31;7.73;;;5.20;;
26656;SDS011;14279;50.010;8.260;2023-11-21T01:50:58;13.03;;;5.80;;
26656;SDS011;14279;50.010;8.260;2023-11-21T01:53:24;5.57;;;5.00;;
26656;SDS011;14279;50.010;8.260;2023-11-21T01:55:51;15.77;;;5.67;;
26656;SDS011;14279;50.010;8.260;2023-11-21T01:58:17;9.63;;;5.20;;
26656;SDS011;14279;50.010;8.260;2023-11-21T02:00:43;7.07;;;4.97;;
26656;SDS011;14279;50.010;8.260;2023-11-21T02:03:08;6.33;;;5.30;;
26656;SDS011;14279;50.010;8.260;2023-11-21T02:05:35;9.23;;;5.40;;
26656;SDS011;14279;50.010;8.260;2023-11-21T02:08:01;12.60;;;5.67;;
26656;SDS011;14279;50.010;8.260;2023-11-21T02:10:27;12.57;;;5.80;;
26656;SDS011;14279;50.010;8.260;2023-11-21T02:12:54;6.50;;;5.50;;
26656;SDS011;14279;50.010;8.260;2023-11-21T02:15:21;9.43;;;5.77;;
26656;SDS011;14279;50.010;8.260;2023-11-21T02:17:51;10.30;;;5.57;;
26656;SDS011;14279;50.010;8.260;2023-11-21T02:20:18;9.90;;;6.57;;
26656;SDS011;14279;50.010;8.260;2023-11-21T02:22:49;8.07;;;5.60;;
26656;SDS011;14279;50.010;8.260;2023-11-21T02:25:22;6.60;;;5.80;;
26656;SDS011;14279;50.010;8.260;2023-11-21T02:27:48;8.70;;;5.70;;
26656;SDS011;14279;50.010;8.260;2023-11-21T02:30:14;7.77;;;4.83;;
26656;SDS011;14279;50.010;8.260;2023-11-21T02:32:41;6.73;;;5.37;;
26656;SDS011;14279;50.010;8.260;2023-11-21T02:35:07;10.13;;;5.90;;
26656;SDS011;14279;50.010;8.260;2023-11-21T02:37:33;7.53;;;5.37;;
26656;SDS011;14279;50.010;8.260;2023-11-21T02:39:59;6.90;;;5.00;;
26656;SDS011;14279;50.010;8.260;2023-11-21T02:42:24;5.30;;;4.80;;
26656;SDS011;14279;50.010;8.260;2023-11-21T02:44:49;8.07;;;4.77;;
26656;SDS011;14279;50.010;8.260;2023-11-21T02:47:15;6.63;;;4.40;;
26656;SDS011;14279;50.010;8.260;2023-11-21T02:49:40;5.30;;;4.70;;
26656;SDS011;14279;50.010;8.260;2023-11-21T02:52:05;5.60;;;4.43;;
26656;SDS011;14279;50.010;8.260;2023-11-21T02:54:31;5.80;;;5.03;;
26656;SDS011;14279;50.010;8.260;2023-11-21T02:57:01;5.90;;;4.60;;
26656;SDS011;14279;50.010;8.260;2023-11-21T02:59:27;7.07;;;4.63;;
26656;SDS011;14279;50.010;8.260;2023-11-21T03:01:52;5.83;;;4.63;;
26656;SDS011;14279;50.010;8.260;2023-11-21T03:04:17;5.20;;;4.37;;
26656;SDS011;14279;50.010;8.260;2023-11-21T03:06:44;7.53;;;4.70;;
26656;SDS011;14279;50.010;8.260;2023-11-21T03:09:10;7.03;;;3.90;;
26656;SDS011;14279;50.010;8.260;2023-11-21T03:11:38;4.27;;;3.93;;
26656;SDS011;14279;50.010;8.260;2023-11-21T03:14:04;4.83;;;4.00;;
26656;SDS011;14279;50.010;8.260;2023-11-21T03:16:30;4.50;;;3.70;;
26656;SDS011;14279;50.010;8.260;2023-11-21T03:18:56;4.10;;;3.63;;
26656;SDS011;14279;50.010;8.260;2023-11-21T03:21:21;5.43;;;4.60;;
26656;SDS011;14279;50.010;8.260;2023-11-21T03:23:47;4.93;;;4.53;;
26656;SDS011;14279;50.010;8.260;2023-11-21T03:26:12;5.23;;;4.40;;
26656;SDS011;14279;50.010;8.260;2023-11-21T03:28:38;3.73;;;3.43;;
26656;SDS011;14279;50.010;8.260;2023-11-21T03:31:03;3.83;;;3.43;;
26656;SDS011;14279;50.010;8.260;2023-11-21T03:33:29;3.10;;;2.90;;
26656;SDS011;14279;50.010;8.260;2023-11-21T03:35:54;2.87;;;2.67;;
26656;SDS011;14279;50.010;8.260;2023-11-21T03:38:19;4.00;;;3.20;;
26656;SDS011;14279;50.010;8.260;2023-11-21T03:40:45;3.43;;;3.20;;
26656;SDS011;14279;50.010;8.260;2023-11-21T03:43:10;3.97;;;3.57;;
26656;SDS011;14279;50.010;8.260;2023-11-21T03:45:36;3.53;;;3.23;;
26656;SDS011;14279;50.010;8.260;2023-11-21T03:48:01;4.90;;;3.43;;
26656;SDS011;14279;50.010;8.260;2023-11-21T03:50:28;3.23;;;2.93;;
26656;SDS011;14279;50.010;8.260;2023-11-21T03:52:54;3.40;;;3.10;;
26656;SDS011;14279;50.010;8.260;2023-11-21T03:55:19;4.03;;;3.73;;
26656;SDS011;14279;50.010;8.260;2023-11-21T03:57:44;3.20;;;3.00;;
26656;SDS011;14279;50.010;8.260;2023-11-21T04:00:10;3.20;;;3.00;;
26656;SDS011;14279;50.010;8.260;2023-11-21T04:02:35;5.43;;;3.50;;
26656;SDS011;14279;50.010;8.260;2023-11-21T04:05:01;3.20;;;3.00;;
26656;SDS011;14279;50.010;8.260;2023-11-21T04:07:26;4.43;;;3.40;;
26656;SDS011;14279;50.010;8.260;2023-11-21T04:09:52;4.90;;;3.23;;
26656;SDS011;14279;50.010;8.260;2023-11-21T04:12:18;3.30;;;3.10;;
26656;SDS011;14279;50.010;8.260;2023-11-21T04:14:44;5.30;;;3.77;;
26656;SDS011;14279;50.010;8.260;2023-11-21T04:17:09;4.20;;;3.77;;
26656;SDS011;14279;50.010;8.260;2023-11-21T04:19:34;3.77;;;3.23;;
26656;SDS011;14279;50.010;8.260;2023-11-21T04:21:59;3.40;;;3.10;;
26656;SDS011;14279;50.010;8.260;2023-11-21T04:24:25;3.80;;;3.40;;
26656;SDS011;14279;50.010;8.260;2023-11-21T04:26:50;3.47;;;3.17;;
26656;SDS011;14279;50.010;8.260;2023-11-21T04:29:16;3.60;;;3.20;;
26656;SDS011;14279;50.010;8.260;2023-11-21T04:31:41;5.10;;;3.63;;
26656;SDS011;14279;50.010;8.260;2023-11-21T04:34:07;3.93;;;3.53;;
26656;SDS011;14279;50.010;8.260;2023-11-21T04:36:33;6.77;;;4.00;;
26656;SDS011;14279;50.010;8.260;2023-11-21T04:38:59;4.50;;;3.60;;
26656;SDS011;14279;50.010;8.260;2023-11-21T04:41:25;5.63;;;4.07;;
26656;SDS011;14279;50.010;8.260;2023-11-21T04:43:50;4.50;;;4.10;;
26656;SDS011;14279;50.010;8.260;2023-11-21T04:46:15;4.70;;;4.00;;
26656;SDS011;14279;50.010;8.260;2023-11-21T04:48:41;3.70;;;3.40;;
26656;SDS011;14279;50.010;8.260;2023-11-21T04:51:06;4.93;;;3.80;;
26656;SDS011;14279;50.010;8.260;2023-11-21T04:53:31;6.63;;;3.57;;
26656;SDS011;14279;50.010;8.260;2023-11-21T04:55:57;4.80;;;3.57;;
26656;SDS011;14279;50.010;8.260;2023-11-21T04:58:22;5.40;;;3.73;;
26656;SDS011;14279;50.010;8.260;2023-11-21T05:00:48;4.93;;;3.90;;
26656;SDS011;14279;50.010;8.260;2023-11-21T05:03:14;6.30;;;4.27;;
26656;SDS011;14279;50.010;8.260;2023-11-21T05:05:40;4.30;;;3.90;;
26656;SDS011;14279;50.010;8.260;2023-11-21T05:08:05;6.00;;;3.70;;
26656;SDS011;14279;50.010;8.260;2023-11-21T05:10:31;4.33;;;3.87;;
26656;SDS011;14279;50.010;8.260;2023-11-21T05:12:56;4.40;;;3.80;;
26656;SDS011;14279;50.010;8.260;2023-11-21T05:15:22;6.97;;;4.70;;
26656;SDS011;14279;50.010;8.260;2023-11-21T05:17:48;4.60;;;4.17;;
26656;SDS011;14279;50.010;8.260;2023-11-21T05:20:15;4.87;;;4.37;;
26656;SDS011;14279;50.010;8.260;2023-11-21T05:22:48;6.07;;;5.00;;
26656;SDS011;14279;50.010;8.260;2023-11-21T05:25:16;5.47;;;4.27;;
26656;SDS011;14279;50.010;8.260;2023-11-21T05:27:43;6.53;;;4.90;;
26656;SDS011;14279;50.010;8.260;2023-11-21T05:30:09;18.00;;;5.23;;
26656;SDS011;14279;50.010;8.260;2023-11-21T05:32:37;5.73;;;4.30;;
26656;SDS011;14279;50.010;8.260;2023-11-21T05:38:29;6.67;;;4.50;;
26656;SDS011;14279;50.010;8.260;2023-11-21T05:41:05;10.47;;;5.10;;
26656;SDS011;14279;50.010;8.260;2023-11-21T05:43:30;18.00;;;3.43;;
26656;SDS011;14279;50.010;8.260;2023-11-21T05:45:56;10.83;;;4.47;;
26656;SDS011;14279;50.010;8.260;2023-11-21T05:48:22;11.13;;;4.10;;
26656;SDS011;14279;50.010;8.260;2023-11-21T05:50:47;6.13;;;3.53;;
26656;SDS011;14279;50.010;8.260;2023-11-21T05:53:14;8.10;;;4.47;;
26656;SDS011;14279;50.010;8.260;2023-11-21T05:55:41;4.20;;;3.10;;
26656;SDS011;14279;50.010;8.260;2023-11-21T05:58:07;7.10;;;3.03;;
26656;SDS011;14279;50.010;8.260;2023-11-21T06:00:33;3.87;;;3.30;;
26656;SDS011;14279;50.010;8.260;2023-11-21T06:02:59;9.20;;;3.80;;
26656;SDS011;14279;50.010;8.260;2023-11-21T06:05:25;13.23;;;3.80;;
26656;SDS011;14279;50.010;8.260;2023-11-21T06:07:51;11.23;;;5.00;;
26656;SDS011;14279;50.010;8.260;2023-11-21T06:10:23;4.90;;;3.60;;
26656;SDS011;14279;50.010;8.260;2023-11-21T06:12:49;5.20;;;3.83;;
26656;SDS011;14279;50.010;8.260;2023-11-21T06:15:15;4.13;;;3.33;;
26656;SDS011;14279;50.010;8.260;2023-11-21T06:17:41;5.10;;;4.00;;
26656;SDS011;14279;50.010;8.260;2023-11-21T06:20:08;7.40;;;3.53;;
26656;SDS011;14279;50.010;8.260;2023-11-21T06:22:36;8.73;;;4.57;;
26656;SDS011;14279;50.010;8.260;2023-11-21T06:25:02;7.10;;;4.23;;
26656;SDS011;14279;50.010;8.260;2023-11-21T06:27:29;6.03;;;3.87;;
26656;SDS011;14279;50.010;8.260;2023-11-21T06:29:56;7.87;;;4.20;;
26656;SDS011;14279;50.010;8.260;2023-11-21T06:32:21;6.87;;;4.00;;
26656;SDS011;14279;50.010;8.260;2023-11-21T06:34:47;3.80;;;3.27;;
26656;SDS011;14279;50.010;8.260;2023-11-21T06:37:14;4.57;;;3.20;;
26656;SDS011;14279;50.010;8.260;2023-11-21T06:39:39;6.53;;;4.13;;
26656;SDS011;14279;50.010;8.260;2023-11-21T06:42:05;7.37;;;4.63;;
26656;SDS011;14279;50.010;8.260;2023-11-21T06:44:30;7.60;;;3.83;;
26656;SDS011;14279;50.010;8.260;2023-11-21T06:46:56;9.53;;;3.47;;
26656;SDS011;14279;50.010;8.260;2023-11-21T06:49:21;6.50;;;3.67;;
26656;SDS011;14279;50.010;8.260;2023-11-21T06:51:46;4.30;;;2.70;;
26656;SDS011;14279;50.010;8.260;2023-11-21T06:54:12;3.50;;;2.93;;
26656;SDS011;14279;50.010;8.260;2023-11-21T06:56:37;4.97;;;3.20;;
26656;SDS011;14279;50.010;8.260;2023-11-21T06:59:04;4.63;;;3.63;;
26656;SDS011;14279;50.010;8.260;2023-11-21T07:01:30;5.80;;;3.90;;
26656;SDS011;14279;50.010;8.260;2023-11-21T07:03:59;4.93;;;3.80;;
26656;SDS011;14279;50.010;8.260;2023-11-21T07:06:24;6.37;;;3.73;;
26656;SDS011;14279;50.010;8.260;2023-11-21T07:08:49;9.80;;;3.83;;
26656;SDS011;14279;50.010;8.260;2023-11-21T07:11:15;10.53;;;3.83;;
26656;SDS011;14279;50.010;8.260;2023-11-21T07:13:40;6.03;;;3.43;;
26656;SDS011;14279;50.010;8.260;2023-11-21T07:16:05;4.47;;;3.43;;
26656;SDS011;14279;50.010;8.260;2023-11-21T07:18:31;5.50;;;3.20;;
26656;SDS011;14279;50.010;8.260;2023-11-21T07:20:56;11.53;;;3.47;;
26656;SDS011;14279;50.010;8.260;2023-11-21T07:23:23;5.43;;;2.90;;
26656;SDS011;14279;50.010;8.260;2023-11-21T07:25:49;5.40;;;3.27;;
26656;SDS011;14279;50.010;8.260;2023-11-21T07:28:14;5.23;;;3.63;;
26656;SDS011;14279;50.010;8.260;2023-11-21T07:30:40;7.83;;;4.07;;
26656;SDS011;14279;50.010;8.260;2023-11-21T07:33:05;7.80;;;4.20;;
26656;SDS011;14279;50.010;8.260;2023-11-21T07:35:32;7.47;;;3.27;;
26656;SDS011;14279;50.010;8.260;2023-11-21T07:37:57;6.20;;;4.23;;
26656;SDS011;14279;50.010;8.260;2023-11-21T07:40:23;15.97;;;3.90;;
26656;SDS011;14279;50.010;8.260;2023-11-21T07:42:48;6.50;;;4.57;;
26656;SDS011;14279;50.010;8.260;2023-11-21T07:45:15;9.00;;;5.07;;
26656;SDS011;14279;50.010;8.260;2023-11-21T07:47:40;7.67;;;4.60;;
26656;SDS011;14279;50.010;8.260;2023-11-21T07:50:06;5.33;;;4.20;;
26656;SDS011;14279;50.010;8.260;2023-11-21T07:52:32;20.53;;;4.50;;
26656;SDS011;14279;50.010;8.260;2023-11-21T07:54:57;8.60;;;4.80;;
26656;SDS011;14279;50.010;8.260;2023-11-21T07:57:23;9.23;;;4.40;;
26656;SDS011;14279;50.010;8.260;2023-11-21T07:59:49;5.63;;;4.33;;
26656;SDS011;14279;50.010;8.260;2023-11-21T08:02:14;7.17;;;5.27;;
26656;SDS011;14279;50.010;8.260;2023-11-21T08:04:41;9.30;;;5.20;;
26656;SDS011;14279;50.010;8.260;2023-11-21T08:07:07;5.67;;;4.90;;
26656;SDS011;14279;50.010;8.260;2023-11-21T08:09:32;7.13;;;4.40;;
26656;SDS011;14279;50.010;8.260;2023-11-21T08:11:59;7.13;;;5.00;;
26656;SDS011;14279;50.010;8.260;2023-11-21T08:14:25;7.83;;;4.67;;
26656;SDS011;14279;50.010;8.260;2023-11-21T08:16:51;7.80;;;4.13;;
26656;SDS011;14279;50.010;8.260;2023-11-21T08:19:17;7.13;;;4.50;;
26656;SDS011;14279;50.010;8.260;2023-11-21T08:21:43;6.37;;;4.10;;
26656;SDS011;14279;50.010;8.260;2023-11-21T08:24:10;7.23;;;5.07;;
26656;SDS011;14279;50.010;8.260;2023-11-21T08:26:36;7.93;;;4.43;;
26656;SDS011;14279;50.010;8.260;2023-11-21T08:29:04;5.80;;;4.23;;
26656;SDS011;14279;50.010;8.260;2023-11-21T08:31:32;8.43;;;4.60;;
26656;SDS011;14279;50.010;8.260;2023-11-21T08:33:59;10.63;;;4.57;;
26656;SDS011;14279;50.010;8.260;2023-11-21T08:36:28;13.97;;;4.70;;
26656;SDS011;14279;50.010;8.260;2023-11-21T08:38:53;5.30;;;4.40;;
26656;SDS011;14279;50.010;8.260;2023-11-21T08:41:18;9.70;;;4.23;;
26656;SDS011;14279;50.010;8.260;2023-11-21T08:43:47;8.80;;;4.50;;
26656;SDS011;14279;50.010;8.260;2023-11-21T08:46:13;11.03;;;4.53;;
26656;SDS011;14279;50.010;8.260;2023-11-21T08:48:38;7.37;;;3.93;;
26656;SDS011;14279;50.010;8.260;2023-11-21T08:51:04;8.10;;;4.70;;
26656;SDS011;14279;50.010;8.260;2023-11-21T08:53:29;5.30;;;3.87;;
26656;SDS011;14279;50.010;8.260;2023-11-21T08:55:56;4.33;;;3.43;;
26656;SDS011;14279;50.010;8.260;2023-11-21T08:58:21;5.60;;;3.40;;
26656;SDS011;14279;50.010;8.260;2023-11-21T09:00:47;6.80;;;3.70;;
26656;SDS011;14279;50.010;8.260;2023-11-21T09:03:13;7.03;;;2.73;;
26656;SDS011;14279;50.010;8.260;2023-11-21T09:05:38;7.80;;;4.47;;
26656;SDS011;14279;50.010;8.260;2023-11-21T09:08:04;5.90;;;3.73;;
26656;SDS011;14279;50.010;8.260;2023-11-21T09:10:35;8.13;;;3.63;;
26656;SDS011;14279;50.010;8.260;2023-11-21T09:13:01;5.73;;;3.40;;
26656;SDS011;14279;50.010;8.260;2023-11-21T09:15:27;8.67;;;3.83;;
26656;SDS011;14279;50.010;8.260;2023-11-21T09:17:52;6.90;;;3.70;;
26656;SDS011;14279;50.010;8.260;2023-11-21T09:20:18;8.00;;;3.50;;
26656;SDS011;14279;50.010;8.260;2023-11-21T09:22:48;8.80;;;3.67;;
26656;SDS011;14279;50.010;8.260;2023-11-21T09:25:16;15.73;;;4.07;;
26656;SDS011;14279;50.010;8.260;2023-11-21T09:27:44;6.43;;;3.17;;
26656;SDS011;14279;50.010;8.260;2023-11-21T09:30:12;10.23;;;2.63;;
26656;SDS011;14279;50.010;8.260;2023-11-21T09:32:39;10.40;;;3.50;;
26656;SDS011;14279;50.010;8.260;2023-11-21T09:35:05;10.33;;;3.50;;
26656;SDS011;14279;50.010;8.260;2023-11-21T09:37:33;8.70;;;3.60;;
26656;SDS011;14279;50.010;8.260;2023-11-21T09:39:58;10.93;;;3.80;;
26656;SDS011;14279;50.010;8.260;2023-11-21T09:42:30;12.90;;;3.60;;
26656;SDS011;14279;50.010;8.260;2023-11-21T09:47:56;4.80;;;2.50;;
26656;SDS011;14279;50.010;8.260;2023-11-21T09:50:22;12.00;;;6.30;;
26656;SDS011;14279;50.010;8.260;2023-11-21T09:52:51;18.17;;;8.03;;
26656;SDS011;14279;50.010;8.260;2023-11-21T09:55:22;10.90;;;4.73;;
26656;SDS011;14279;50.010;8.260;2023-11-21T09:57:52;7.67;;;3.63;;
26656;SDS011;14279;50.010;8.260;2023-11-21T10:00:18;16.63;;;3.53;;
26656;SDS011;14279;50.010;8.260;2023-11-21T10:02:45;10.33;;;4.27;;
26656;SDS011;14279;50.010;8.260;2023-11-21T10:05:12;8.70;;;4.23;;
26656;SDS011;14279;50.010;8.260;2023-11-21T10:07:38;17.07;;;8.30;;
26656;SDS011;14279;50.010;8.260;2023-11-21T10:10:05;3.60;;;3.10;;
26656;SDS011;14279;50.010;8.260;2023-11-21T10:12:33;4.47;;;2.73;;
26656;SDS011;14279;50.010;8.260;2023-11-21T10:14:59;6.43;;;3.30;;
26656;SDS011;14279;50.010;8.260;2023-11-21T10:17:28;8.10;;;4.50;;
26656;SDS011;14279;50.010;8.260;2023-11-21T10:20:01;14.07;;;7.13;;
26656;SDS011;14279;50.010;8.260;2023-11-21T10:22:31;17.63;;;8.70;;
26656;SDS011;14279;50.010;8.260;2023-11-21T10:24:56;8.07;;;4.30;;
26656;SDS011;14279;50.010;8.260;2023-11-21T10:27:22;10.67;;;5.30;;
26656;SDS011;14279;50.010;8.260;2023-11-21T10:29:50;7.83;;;3.90;;
26656;SDS011;14279;50.010;8.260;2023-11-21T10:32:16;7.83;;;3.83;;
26656;SDS011;14279;50.010;8.260;2023-11-21T10:34:41;11.70;;;5.67;;
26656;SDS011;14279;50.010;8.260;2023-11-21T10:37:13;13.10;;;3.40;;
26656;SDS011;14279;50.010;8.260;2023-11-21T10:39:39;8.80;;;3.67;;
26656;SDS011;14279;50.010;8.260;2023-11-21T10:42:04;11.57;;;3.90;;
26656;SDS011;14279;50.010;8.260;2023-11-21T10:44:33;12.27;;;4.97;;
26656;SDS011;14279;50.010;8.260;2023-11-21T10:46:59;9.93;;;3.10;;
26656;SDS011;14279;50.010;8.260;2023-11-21T10:49:26;9.07;;;4.43;;
26656;SDS011;14279;50.010;8.260;2023-11-21T10:51:53;7.80;;;3.30;;
26656;SDS011;14279;50.010;8.260;2023-11-21T10:54:19;8.77;;;4.10;;
26656;SDS011;14279;50.010;8.260;2023-11-21T10:56:57;5.90;;;3.13;;
26656;SDS011;14279;50.010;8.260;2023-11-21T10:59:31;3.53;;;2.80;;
26656;SDS011;14279;50.010;8.260;2023-11-21T11:01:59;6.97;;;3.10;;
26656;SDS011;14279;50.010;8.260;2023-11-21T11:04:28;8.60;;;2.80;;
26656;SDS011;14279;50.010;8.260;2023-11-21T11:06:54;5.83;;;2.80;;
26656;SDS011;14279;50.010;8.260;2023-11-21T11:09:22;5.10;;;2.70;;
26656;SDS011;14279;50.010;8.260;2023-11-21T11:11:48;5.43;;;2.73;;
26656;SDS011;14279;50.010;8.260;2023-11-21T11:14:14;6.00;;;3.20;;
26656;SDS011;14279;50.010;8.260;2023-11-21T11:16:40;5.40;;;3.03;;
26656;SDS011;14279;50.010;8.260;2023-11-21T11:19:06;7.53;;;2.93;;
26656;SDS011;14279;50.010;8.260;2023-11-21T11:30:04;7.10;;;3.40;;
26656;SDS011;14279;50.010;8.260;2023-11-21T11:35:36;7.20;;;3.13;;
26656;SDS011;14279;50.010;8.260;2023-11-21T11:38:12;5.87;;;3.30;;
26656;SDS011;14279;50.010;8.260;2023-11-21T11:40:44;6.57;;;3.00;;
26656;SDS011;14279;50.010;8.260;2023-11-21T11:43:11;5.20;;;2.50;;
26656;SDS011;14279;50.010;8.260;2023-11-21T11:45:37;9.13;;;3.07;;
26656;SDS011;14279;50.010;8.260;2023-11-21T11:48:06;5.37;;;2.47;;
26656;SDS011;14279;50.010;8.260;2023-11-21T11:50:33;6.03;;;3.23;;
26656;SDS011;14279;50.010;8.260;2023-11-21T11:53:15;5.30;;;3.33;;
26656;SDS011;14279;50.010;8.260;2023-11-21T11:55:41;9.77;;;2.90;;
26656;SDS011;14279;50.010;8.260;2023-11-21T11:58:06;4.30;;;2.83;;
26656;SDS011;14279;50.010;8.260;2023-11-21T12:00:33;8.33;;;3.47;;
26656;SDS011;14279;50.010;8.260;2023-11-21T12:03:02;6.63;;;2.90;;
26656;SDS011;14279;50.010;8.260;2023-11-21T12:05:29;13.50;;;3.80;;
26656;SDS011;14279;50.010;8.260;2023-11-21T12:07:59;7.50;;;3.20;;
26656;SDS011;14279;50.010;8.260;2023-11-21T12:10:27;8.90;;;3.20;;
26656;SDS011;14279;50.010;8.260;2023-11-21T12:12:54;5.50;;;2.87;;
26656;SDS011;14279;50.010;8.260;2023-11-21T12:15:21;4.43;;;2.90;;
26656;SDS011;14279;50.010;8.260;2023-11-21T12:17:48;7.03;;;3.37;;
26656;SDS011;14279;50.010;8.260;2023-11-21T12:20:16;5.27;;;3.30;;
26656;SDS011;14279;50.010;8.260;2023-11-21T12:22:44;4.50;;;2.60;;
26656;SDS011;14279;50.010;8.260;2023-11-21T12:25:17;7.17;;;2.50;;
26656;SDS011;14279;50.010;8.260;2023-11-21T12:27:51;4.30;;;3.20;;
26656;SDS011;14279;50.010;8.260;2023-11-21T12:30:21;3.70;;;2.67;;
26656;SDS011;14279;50.010;8.260;2023-11-21T12:32:48;5.63;;;3.03;;
26656;SDS011;14279;50.010;8.260;2023-11-21T12:35:16;5.30;;;2.67;;
26656;SDS011;14279;50.010;8.260;2023-11-21T12:37:44;7.80;;;3.03;;
26656;SDS011;14279;50.010;8.260;2023-11-21T12:40:10;12.00;;;2.90;;
26656;SDS011;14279;50.010;8.260;2023-11-21T12:42:43;8.43;;;2.80;;
26656;SDS011;14279;50.010;8.260;2023-11-21T12:45:27;5.53;;;3.20;;
26656;SDS011;14279;50.010;8.260;2023-11-21T12:49:16;4.80;;;3.40;;
26656;SDS011;14279;50.010;8.260;2023-11-21T12:52:30;7.53;;;3.10;;
26656;SDS011;14279;50.010;8.260;2023-11-21T12:55:44;5.77;;;2.73;;
26656;SDS011;14279;50.010;8.260;2023-11-21T12:58:22;4.07;;;3.03;;
26656;SDS011;14279;50.010;8.260;2023-11-21T13:01:06;5.30;;;2.90;;
26656;SDS011;14279;50.010;8.260;2023-11-21T13:06:38;6.20;;;3.50;;
26656;SDS011;14279;50.010;8.260;2023-11-21T13:09:32;14.73;;;4.23;;
26656;SDS011;14279;50.010;8.260;2023-11-21T13:12:01;11.57;;;3.93;;
26656;SDS011;14279;50.010;8.260;2023-11-21T13:14:29;5.80;;;4.10;;
26656;SDS011;14279;50.010;8.260;2023-11-21T13:16:57;6.57;;;4.00;;
26656;SDS011;14279;50.010;8.260;2023-11-21T13:19:22;4.13;;;3.20;;
26656;SDS011;14279;50.010;8.260;2023-11-21T13:21:49;7.30;;;3.70;;
26656;SDS011;14279;50.010;8.260;2023-11-21T13:24:14;5.27;;;4.07;;
26656;SDS011;14279;50.010;8.260;2023-11-21T13:26:40;6.13;;;3.70;;
26656;SDS011;14279;50.010;8.260;2023-11-21T13:29:05;5.37;;;4.20;;
26656;SDS011;14279;50.010;8.260;2023-11-21T13:31:31;6.63;;;4.03;;
26656;SDS011;14279;50.010;8.260;2023-11-21T13:33:57;7.30;;;4.10;;
26656;SDS011;14279;50.010;8.260;2023-11-21T13:36:29;6.43;;;5.03;;
26656;SDS011;14279;50.010;8.260;2023-11-21T13:38:58;14.63;;;5.50;;
26656;SDS011;14279;50.010;8.260;2023-11-21T13:41:24;10.50;;;5.50;;
26656;SDS011;14279;50.010;8.260;2023-11-21T13:43:55;9.10;;;5.20;;
26656;SDS011;14279;50.010;8.260;2023-11-21T13:46:39;12.23;;;5.10;;
26656;SDS011;14279;50.010;8.260;2023-11-21T13:49:09;8.33;;;4.90;;
26656;SDS011;14279;50.010;8.260;2023-11-21T13:51:35;10.53;;;5.33;;
26656;SDS011;14279;50.010;8.260;2023-11-21T13:54:14;14.67;;;5.50;;
26656;SDS011;14279;50.010;8.260;2023-11-21T13:57:23;10.43;;;5.50;;
26656;SDS011;14279;50.010;8.260;2023-11-21T13:59:49;9.60;;;5.00;;
26656;SDS011;14279;50.010;8.260;2023-11-21T14:02:14;8.40;;;4.93;;
26656;SDS011;14279;50.010;8.260;2023-11-21T14:04:43;7.30;;;5.67;;
26656;SDS011;14279;50.010;8.260;2023-11-21T14:07:20;10.47;;;5.60;;
26656;SDS011;14279;50.010;8.260;2023-11-21T14:10:03;11.30;;;5.47;;
26656;SDS011;14279;50.010;8.260;2023-11-21T14:12:33;7.50;;;4.30;;
26656;SDS011;14279;50.010;8.260;2023-11-21T14:15:01;11.70;;;4.87;;
26656;SDS011;14279;50.010;8.260;2023-11-21T14:17:30;11.47;;;4.70;;
26656;SDS011;14279;50.010;8.260;2023-11-21T14:19:55;11.23;;;4.80;;
26656;SDS011;14279;50.010;8.260;2023-11-21T14:22:22;11.30;;;4.37;;
26656;SDS011;14279;50.010;8.260;2023-11-21T14:24:50;11.40;;;4.57;;
26656;SDS011;14279;50.010;8.260;2023-11-21T14:27:17;9.20;;;4.83;;
26656;SDS011;14279;50.010;8.260;2023-11-21T14:29:42;9.03;;;4.27;;
26656;SDS011;14279;50.010;8.260;2023-11-21T14:32:09;6.77;;;4.10;;
26656;SDS011;14279;50.010;8.260;2023-11-21T14:34:35;9.17;;;4.70;;
26656;SDS011;14279;50.010;8.260;2023-11-21T14:37:01;8.57;;;5.07;;
26656;SDS011;14279;50.010;8.260;2023-11-21T14:39:28;6.83;;;4.50;;
26656;SDS011;14279;50.010;8.260;2023-11-21T14:41:54;8.03;;;4.60;;
26656;SDS011;14279;50.010;8.260;2023-11-21T14:44:24;6.17;;;4.30;;
26656;SDS011;14279;50.010;8.260;2023-11-21T14:46:53;6.70;;;4.27;;
26656;SDS011;14279;50.010;8.260;2023-11-21T14:49:20;10.67;;;4.93;;
26656;SDS011;14279;50.010;8.260;2023-11-21T14:51:49;6.97;;;4.97;;
26656;SDS011;14279;50.010;8.260;2023-11-21T14:54:29;8.70;;;4.47;;
26656;SDS011;14279;50.010;8.260;2023-11-21T14:57:10;10.83;;;4.37;;
26656;SDS011;14279;50.010;8.260;2023-11-21T14:59:42;6.43;;;4.30;;
26656;SDS011;14279;50.010;8.260;2023-11-21T15:02:08;10.27;;;5.70;;
26656;SDS011;14279;50.010;8.260;2023-11-21T15:04:43;14.80;;;5.77;;
26656;SDS011;14279;50.010;8.260;2023-11-21T15:07:08;15.60;;;5.70;;
26656;SDS011;14279;50.010;8.260;2023-11-21T15:09:36;13.53;;;5.17;;